sensor_id;sensor_type;location;lat;lon;timestamp;pressure;altitude;pressure_sealevel;temperature;humidity
13029;BME280;6581;42.662;23.402;2023-07-29T00:02:20;95187.41;;;19.96;57.79
13029;BME280;6581;42.662;23.402;2023-07-29T00:04:48;95196.72;;;19.91;57.48
13029;BME280;6581;42.662;23.402;2023-07-29T00:07:15;95193.88;;;19.98;56.65
13029;BME280;6581;42.662;23.402;2023-07-29T00:09:42;95189.25;;;19.99;56.68
13029;BME280;6581;42.662;23.402;2023-07-29T00:12:10;95190.09;;;19.96;57.92
13029;BME280;6581;42.662;23.402;2023-07-29T00:14:37;95192.03;;;19.95;57.93
13029;BME280;6581;42.662;23.402;2023-07-29T00:17:04;95189.75;;;19.93;57.46
13029;BME280;6581;42.662;23.402;2023-07-29T00:19:32;95192.88;;;19.92;58.50
13029;BME280;6581;42.662;23.402;2023-07-29T00:21:59;95200.66;;;19.86;58.76
13029;BME280;6581;42.662;23.402;2023-07-29T00:24:26;95194.53;;;19.86;58.45
13029;BME280;6581;42.662;23.402;2023-07-29T00:26:53;95191.41;;;19.71;58.38
13029;BME280;6581;42.662;23.402;2023-07-29T00:29:21;95192.66;;;19.67;58.32
13029;BME280;6581;42.662;23.402;2023-07-29T00:31:51;95193.16;;;19.62;58.98
13029;BME280;6581;42.662;23.402;2023-07-29T00:34:19;95194.34;;;19.61;59.10
13029;BME280;6581;42.662;23.402;2023-07-29T00:36:47;95189.56;;;19.52;59.63
13029;BME280;6581;42.662;23.402;2023-07-29T00:39:14;95188.09;;;19.48;60.61
13029;BME280;6581;42.662;23.402;2023-07-29T00:41:41;95181.97;;;19.47;61.38
13029;BME280;6581;42.662;23.402;2023-07-29T00:44:08;95190.16;;;19.40;62.56
13029;BME280;6581;42.662;23.402;2023-07-29T00:46:38;95177.47;;;19.40;63.19
13029;BME280;6581;42.662;23.402;2023-07-29T00:49:05;95180.25;;;19.37;64.38
13029;BME280;6581;42.662;23.402;2023-07-29T00:51:32;95171.91;;;19.31;64.83
13029;BME280;6581;42.662;23.402;2023-07-29T00:53:59;95178.81;;;19.32;64.70
13029;BME280;6581;42.662;23.402;2023-07-29T00:56:27;95177.66;;;19.14;67.63
13029;BME280;6581;42.662;23.402;2023-07-29T00:58:54;95182.63;;;19.15;68.99
13029;BME280;6581;42.662;23.402;2023-07-29T01:01:26;95173.84;;;19.11;70.61
13029;BME280;6581;42.662;23.402;2023-07-29T01:03:55;95177.72;;;19.10;70.85
13029;BME280;6581;42.662;23.402;2023-07-29T01:06:28;95177.09;;;19.02;71.62
13029;BME280;6581;42.662;23.402;2023-07-29T01:09:02;95176.91;;;18.93;72.16
13029;BME280;6581;42.662;23.402;2023-07-29T01:11:38;95173.13;;;18.91;72.58
13029;BME280;6581;42.662;23.402;2023-07-29T01:14:17;95163.56;;;18.90;72.37
13029;BME280;6581;42.662;23.402;2023-07-29T01:16:51;95172.91;;;18.82;72.52
13029;BME280;6581;42.662;23.402;2023-07-29T01:19:32;95178.34;;;18.78;73.08
13029;BME280;6581;42.662;23.402;2023-07-29T01:22:02;95181.44;;;18.77;73.15
13029;BME280;6581;42.662;23.402;2023-07-29T01:24:31;95179.16;;;18.75;72.47
13029;BME280;6581;42.662;23.402;2023-07-29T01:26:58;95178.81;;;18.73;70.54
13029;BME280;6581;42.662;23.402;2023-07-29T01:29:27;95177.72;;;18.71;69.31
13029;BME280;6581;42.662;23.402;2023-07-29T01:31:57;95175.88;;;18.68;70.29
13029;BME280;6581;42.662;23.402;2023-07-29T01:34:29;95177.94;;;18.60;70.06
13029;BME280;6581;42.662;23.402;2023-07-29T01:37:00;95178.69;;;18.61;69.98
13029;BME280;6581;42.662;23.402;2023-07-29T01:39:33;95177.16;;;18.59;69.65
13029;BME280;6581;42.662;23.402;2023-07-29T01:42:02;95174.56;;;18.56;69.55
13029;BME280;6581;42.662;23.402;2023-07-29T01:44:30;95174.47;;;18.59;68.77
13029;BME280;6581;42.662;23.402;2023-07-29T01:46:57;95172.97;;;18.58;68.65
13029;BME280;6581;42.662;23.402;2023-07-29T01:49:24;95169.44;;;18.62;68.69
13029;BME280;6581;42.662;23.402;2023-07-29T01:51:51;95173.44;;;18.53;68.95
13029;BME280;6581;42.662;23.402;2023-07-29T01:54:18;95179.16;;;18.52;69.17
13029;BME280;6581;42.662;23.402;2023-07-29T01:56:47;95176.50;;;18.52;69.50
13029;BME280;6581;42.662;23.402;2023-07-29T01:59:16;95170.44;;;18.48;69.31
13029;BME280;6581;42.662;23.402;2023-07-29T02:01:44;95179.38;;;18.41;68.92
13029;BME280;6581;42.662;23.402;2023-07-29T02:04:12;95177.56;;;18.35;68.71
13029;BME280;6581;42.662;23.402;2023-07-29T02:06:39;95177.63;;;18.31;69.18
13029;BME280;6581;42.662;23.402;2023-07-29T02:09:06;95177.63;;;18.31;69.24
13029;BME280;6581;42.662;23.402;2023-07-29T02:11:33;95183.41;;;18.30;69.26
13029;BME280;6581;42.662;23.402;2023-07-29T02:14:01;95182.63;;;18.29;69.28
13029;BME280;6581;42.662;23.402;2023-07-29T02:16:29;95184.69;;;18.22;69.43
13029;BME280;6581;42.662;23.402;2023-07-29T02:18:56;95184.69;;;18.22;69.85
13029;BME280;6581;42.662;23.402;2023-07-29T02:21:23;95187.72;;;18.24;69.30
13029;BME280;6581;42.662;23.402;2023-07-29T02:23:50;95188.81;;;18.26;69.13
13029;BME280;6581;42.662;23.402;2023-07-29T02:26:18;95187.72;;;18.24;69.40
13029;BME280;6581;42.662;23.402;2023-07-29T02:28:45;95193.50;;;18.22;70.13
13029;BME280;6581;42.662;23.402;2023-07-29T02:31:17;95177.88;;;18.17;69.96
13029;BME280;6581;42.662;23.402;2023-07-29T02:33:45;95181.66;;;18.20;70.18
13029;BME280;6581;42.662;23.402;2023-07-29T02:36:13;95185.53;;;18.15;70.63
13029;BME280;6581;42.662;23.402;2023-07-29T02:38:41;95183.28;;;18.13;70.48
13029;BME280;6581;42.662;23.402;2023-07-29T02:41:09;95178.31;;;18.12;70.22
13029;BME280;6581;42.662;23.402;2023-07-29T02:43:38;95182.88;;;18.15;70.01
13029;BME280;6581;42.662;23.402;2023-07-29T02:46:07;95184.44;;;18.12;71.06
13029;BME280;6581;42.662;23.402;2023-07-29T02:48:35;95176.53;;;18.05;71.69
13029;BME280;6581;42.662;23.402;2023-07-29T02:51:03;95175.81;;;18.01;71.81
13029;BME280;6581;42.662;23.402;2023-07-29T02:53:30;95187.72;;;18.00;71.68
13029;BME280;6581;42.662;23.402;2023-07-29T02:55:57;95183.13;;;18.01;71.68
13029;BME280;6581;42.662;23.402;2023-07-29T02:58:24;95193.09;;;18.00;71.62
13029;BME280;6581;42.662;23.402;2023-07-29T03:00:52;95184.69;;;17.98;70.64
13029;BME280;6581;42.662;23.402;2023-07-29T03:03:19;95196.56;;;17.97;71.00
13029;BME280;6581;42.662;23.402;2023-07-29T03:05:48;95203.44;;;17.98;71.20
13029;BME280;6581;42.662;23.402;2023-07-29T03:08:15;95202.78;;;17.91;71.23
13029;BME280;6581;42.662;23.402;2023-07-29T03:10:42;95203.81;;;18.00;70.34
13029;BME280;6581;42.662;23.402;2023-07-29T03:13:09;95208.41;;;18.00;69.84
13029;BME280;6581;42.662;23.402;2023-07-29T03:15:36;95207.56;;;18.03;70.28
13029;BME280;6581;42.662;23.402;2023-07-29T03:18:03;95217.47;;;18.06;70.63
13029;BME280;6581;42.662;23.402;2023-07-29T03:20:30;95216.78;;;18.02;70.87
13029;BME280;6581;42.662;23.402;2023-07-29T03:22:59;95213.75;;;18.00;71.86
13029;BME280;6581;42.662;23.402;2023-07-29T03:25:26;95218.34;;;17.99;71.24
13029;BME280;6581;42.662;23.402;2023-07-29T03:27:54;95218.00;;;17.97;72.03
13029;BME280;6581;42.662;23.402;2023-07-29T03:30:22;95209.63;;;17.95;72.36
13029;BME280;6581;42.662;23.402;2023-07-29T03:32:50;95212.00;;;17.90;72.98
13029;BME280;6581;42.662;23.402;2023-07-29T03:35:18;95210.47;;;17.89;74.06
13029;BME280;6581;42.662;23.402;2023-07-29T03:37:45;95213.16;;;17.89;74.62
13029;BME280;6581;42.662;23.402;2023-07-29T03:40:14;95218.94;;;17.87;75.54
13029;BME280;6581;42.662;23.402;2023-07-29T03:42:41;95219.66;;;17.88;76.66
13029;BME280;6581;42.662;23.402;2023-07-29T03:45:09;95216.97;;;17.91;77.04
13029;BME280;6581;42.662;23.402;2023-07-29T03:47:37;95214.66;;;17.90;77.68
13029;BME280;6581;42.662;23.402;2023-07-29T03:50:05;95216.28;;;17.84;77.75
13029;BME280;6581;42.662;23.402;2023-07-29T03:52:32;95217.34;;;17.90;77.84
13029;BME280;6581;42.662;23.402;2023-07-29T03:54:59;95214.78;;;17.83;78.48
13029;BME280;6581;42.662;23.402;2023-07-29T03:57:28;95203.41;;;17.45;78.88
13029;BME280;6581;42.662;23.402;2023-07-29T03:59:55;95211.44;;;17.45;78.59
13029;BME280;6581;42.662;23.402;2023-07-29T04:02:22;95206.50;;;17.43;79.19
13029;BME280;6581;42.662;23.402;2023-07-29T04:04:50;95214.44;;;17.50;79.36
13029;BME280;6581;42.662;23.402;2023-07-29T04:07:17;95211.78;;;17.50;80.09
13029;BME280;6581;42.662;23.402;2023-07-29T04:09:45;95213.56;;;17.57;80.32
13029;BME280;6581;42.662;23.402;2023-07-29T04:12:12;95221.94;;;17.62;80.28
13029;BME280;6581;42.662;23.402;2023-07-29T04:14:40;95218.06;;;17.67;80.36
13029;BME280;6581;42.662;23.402;2023-07-29T04:17:07;95220.63;;;17.74;79.70
13029;BME280;6581;42.662;23.402;2023-07-29T04:19:34;95222.53;;;17.73;79.65
13029;BME280;6581;42.662;23.402;2023-07-29T04:22:01;95222.91;;;17.76;80.05
13029;BME280;6581;42.662;23.402;2023-07-29T04:24:28;95232.06;;;17.78;80.27
13029;BME280;6581;42.662;23.402;2023-07-29T04:26:56;95227.44;;;17.82;80.15
13029;BME280;6581;42.662;23.402;2023-07-29T04:29:22;95220.84;;;17.87;80.04
13029;BME280;6581;42.662;23.402;2023-07-29T04:31:51;95217.34;;;17.90;79.98
13029;BME280;6581;42.662;23.402;2023-07-29T04:34:19;95219.31;;;17.86;80.21
13029;BME280;6581;42.662;23.402;2023-07-29T04:36:46;95217.50;;;17.79;80.33
13029;BME280;6581;42.662;23.402;2023-07-29T04:39:14;95222.84;;;17.79;79.65
13029;BME280;6581;42.662;23.402;2023-07-29T04:41:41;95220.59;;;17.78;80.05
13029;BME280;6581;42.662;23.402;2023-07-29T04:44:08;95229.28;;;17.85;79.92
13029;BME280;6581;42.662;23.402;2023-07-29T04:46:35;95226.16;;;17.90;79.42
13029;BME280;6581;42.662;23.402;2023-07-29T04:49:04;95223.81;;;17.92;78.78
13029;BME280;6581;42.662;23.402;2023-07-29T04:51:33;95232.09;;;18.01;78.86
13029;BME280;6581;42.662;23.402;2023-07-29T04:54:00;95232.75;;;18.09;78.65
13029;BME280;6581;42.662;23.402;2023-07-29T04:56:27;95234.81;;;18.25;78.96
13029;BME280;6581;42.662;23.402;2023-07-29T04:58:54;95230.38;;;18.38;78.29
13029;BME280;6581;42.662;23.402;2023-07-29T05:01:21;95235.63;;;18.45;76.28
13029;BME280;6581;42.662;23.402;2023-07-29T05:03:49;95229.00;;;18.53;75.60
13029;BME280;6581;42.662;23.402;2023-07-29T05:06:17;95235.28;;;18.66;74.25
13029;BME280;6581;42.662;23.402;2023-07-29T05:08:45;95240.53;;;18.73;74.00
13029;BME280;6581;42.662;23.402;2023-07-29T05:11:12;95240.06;;;18.78;74.31
13029;BME280;6581;42.662;23.402;2023-07-29T05:13:39;95246.91;;;18.83;73.61
13029;BME280;6581;42.662;23.402;2023-07-29T05:16:08;95251.16;;;19.00;72.35
13029;BME280;6581;42.662;23.402;2023-07-29T05:18:35;95241.28;;;18.97;73.87
13029;BME280;6581;42.662;23.402;2023-07-29T05:21:03;95242.16;;;19.10;73.39
13029;BME280;6581;42.662;23.402;2023-07-29T05:23:31;95242.00;;;19.17;71.97
13029;BME280;6581;42.662;23.402;2023-07-29T05:25:58;95244.69;;;19.17;71.66
13029;BME280;6581;42.662;23.402;2023-07-29T05:28:25;95244.31;;;19.19;71.39
13029;BME280;6581;42.662;23.402;2023-07-29T05:30:53;95249.25;;;19.20;71.49
13029;BME280;6581;42.662;23.402;2023-07-29T05:33:20;95254.75;;;19.33;71.64
13029;BME280;6581;42.662;23.402;2023-07-29T05:35:47;95259.22;;;19.39;71.28
13029;BME280;6581;42.662;23.402;2023-07-29T05:38:14;95248.78;;;19.45;71.93
13029;BME280;6581;42.662;23.402;2023-07-29T05:40:43;95263.16;;;19.35;71.49
13029;BME280;6581;42.662;23.402;2023-07-29T05:43:10;95258.06;;;19.40;72.23
13029;BME280;6581;42.662;23.402;2023-07-29T05:45:37;95264.50;;;19.46;72.37
13029;BME280;6581;42.662;23.402;2023-07-29T05:48:05;95261.44;;;19.64;70.75
13029;BME280;6581;42.662;23.402;2023-07-29T05:50:35;95259.03;;;19.70;70.86
13029;BME280;6581;42.662;23.402;2023-07-29T05:53:02;95259.47;;;19.84;71.41
13029;BME280;6581;42.662;23.402;2023-07-29T05:55:29;95261.16;;;19.95;70.84
13029;BME280;6581;42.662;23.402;2023-07-29T05:57:58;95260.66;;;20.00;69.46
13029;BME280;6581;42.662;23.402;2023-07-29T06:00:25;95252.03;;;20.08;69.27
13029;BME280;6581;42.662;23.402;2023-07-29T06:02:52;95257.84;;;20.23;68.65
13029;BME280;6581;42.662;23.402;2023-07-29T06:05:21;95259.63;;;20.29;67.13
13029;BME280;6581;42.662;23.402;2023-07-29T06:07:48;95264.84;;;20.37;67.36
13029;BME280;6581;42.662;23.402;2023-07-29T06:10:16;95255.84;;;20.43;66.99
13029;BME280;6581;42.662;23.402;2023-07-29T06:12:44;95250.44;;;20.59;66.18
13029;BME280;6581;42.662;23.402;2023-07-29T06:15:13;95261.88;;;20.63;65.12
13029;BME280;6581;42.662;23.402;2023-07-29T06:17:41;95256.75;;;20.69;64.85
13029;BME280;6581;42.662;23.402;2023-07-29T06:20:09;95258.84;;;20.77;64.96
13029;BME280;6581;42.662;23.402;2023-07-29T06:22:37;95254.69;;;20.89;64.28
13029;BME280;6581;42.662;23.402;2023-07-29T06:25:04;95252.94;;;20.83;63.55
13029;BME280;6581;42.662;23.402;2023-07-29T06:27:31;95253.19;;;20.88;64.29
13029;BME280;6581;42.662;23.402;2023-07-29T06:29:58;95246.53;;;20.93;63.14
13029;BME280;6581;42.662;23.402;2023-07-29T06:32:31;95244.38;;;21.00;63.97
13029;BME280;6581;42.662;23.402;2023-07-29T06:34:59;95247.16;;;21.13;64.64
13029;BME280;6581;42.662;23.402;2023-07-29T06:37:27;95242.38;;;21.33;63.73
13029;BME280;6581;42.662;23.402;2023-07-29T06:39:54;95234.94;;;21.37;63.66
13029;BME280;6581;42.662;23.402;2023-07-29T06:42:21;95238.09;;;21.48;61.68
13029;BME280;6581;42.662;23.402;2023-07-29T06:44:48;95235.50;;;21.45;62.50
13029;BME280;6581;42.662;23.402;2023-07-29T06:47:15;95231.31;;;21.44;63.63
13029;BME280;6581;42.662;23.402;2023-07-29T06:49:45;95227.44;;;21.57;63.36
13029;BME280;6581;42.662;23.402;2023-07-29T06:52:13;95234.03;;;21.69;63.46
13029;BME280;6581;42.662;23.402;2023-07-29T06:54:40;95226.59;;;21.73;63.43
13029;BME280;6581;42.662;23.402;2023-07-29T06:57:07;95228.88;;;21.75;61.71
13029;BME280;6581;42.662;23.402;2023-07-29T06:59:34;95229.63;;;21.75;61.28
13029;BME280;6581;42.662;23.402;2023-07-29T07:02:01;95232.88;;;21.95;61.61
13029;BME280;6581;42.662;23.402;2023-07-29T07:04:28;95226.41;;;22.05;60.57
13029;BME280;6581;42.662;23.402;2023-07-29T07:06:57;95227.91;;;22.19;59.81
13029;BME280;6581;42.662;23.402;2023-07-29T07:09:24;95224.03;;;22.20;60.73
13029;BME280;6581;42.662;23.402;2023-07-29T07:11:51;95225.31;;;22.41;60.21
13029;BME280;6581;42.662;23.402;2023-07-29T07:14:18;95230.63;;;22.66;57.09
13029;BME280;6581;42.662;23.402;2023-07-29T07:16:46;95229.34;;;22.71;56.40
13029;BME280;6581;42.662;23.402;2023-07-29T07:19:13;95230.38;;;22.86;55.88
13029;BME280;6581;42.662;23.402;2023-07-29T07:21:40;95235.09;;;23.16;56.20
13029;BME280;6581;42.662;23.402;2023-07-29T07:24:09;95229.59;;;24.52;49.96
13029;BME280;6581;42.662;23.402;2023-07-29T07:26:36;95229.16;;;27.09;43.88
13029;BME280;6581;42.662;23.402;2023-07-29T07:29:03;95224.84;;;29.36;37.48
13029;BME280;6581;42.662;23.402;2023-07-29T07:31:33;95231.41;;;31.84;32.29
13029;BME280;6581;42.662;23.402;2023-07-29T07:34:01;95230.16;;;33.92;29.20
13029;BME280;6581;42.662;23.402;2023-07-29T07:36:29;95233.78;;;34.41;27.91
13029;BME280;6581;42.662;23.402;2023-07-29T07:38:56;95236.09;;;35.41;26.29
13029;BME280;6581;42.662;23.402;2023-07-29T07:41:25;95242.28;;;37.22;24.36
13029;BME280;6581;42.662;23.402;2023-07-29T07:43:52;95242.75;;;37.60;22.83
13029;BME280;6581;42.662;23.402;2023-07-29T07:46:19;95242.63;;;39.05;21.99
13029;BME280;6581;42.662;23.402;2023-07-29T07:48:47;95239.00;;;38.53;21.84
13029;BME280;6581;42.662;23.402;2023-07-29T07:51:14;95242.72;;;39.79;20.37
13029;BME280;6581;42.662;23.402;2023-07-29T07:53:41;95247.22;;;40.35;19.96
13029;BME280;6581;42.662;23.402;2023-07-29T07:56:08;95254.63;;;41.26;19.40
13029;BME280;6581;42.662;23.402;2023-07-29T07:58:36;95241.31;;;41.24;19.32
13029;BME280;6581;42.662;23.402;2023-07-29T08:01:03;95246.63;;;40.82;19.72
13029;BME280;6581;42.662;23.402;2023-07-29T08:03:30;95250.50;;;41.42;19.24
13029;BME280;6581;42.662;23.402;2023-07-29T08:05:57;95247.19;;;40.43;19.61
13029;BME280;6581;42.662;23.402;2023-07-29T08:08:25;95249.34;;;41.05;19.17
13029;BME280;6581;42.662;23.402;2023-07-29T08:10:52;95249.25;;;41.75;18.13
13029;BME280;6581;42.662;23.402;2023-07-29T08:13:20;95248.00;;;41.21;18.95
13029;BME280;6581;42.662;23.402;2023-07-29T08:15:49;95262.88;;;41.01;18.64
13029;BME280;6581;42.662;23.402;2023-07-29T08:18:16;95249.97;;;40.65;18.69
13029;BME280;6581;42.662;23.402;2023-07-29T08:20:51;95251.78;;;41.48;18.31
13029;BME280;6581;42.662;23.402;2023-07-29T08:23:19;95253.41;;;41.11;18.66
13029;BME280;6581;42.662;23.402;2023-07-29T08:25:51;95250.28;;;41.00;18.41
13029;BME280;6581;42.662;23.402;2023-07-29T08:28:19;95251.00;;;39.71;19.51
13029;BME280;6581;42.662;23.402;2023-07-29T08:30:46;95247.25;;;36.18;22.59
13029;BME280;6581;42.662;23.402;2023-07-29T08:33:15;95238.09;;;33.65;25.63
13029;BME280;6581;42.662;23.402;2023-07-29T08:35:42;95232.78;;;32.80;26.72
13029;BME280;6581;42.662;23.402;2023-07-29T08:38:09;95232.13;;;31.68;28.42
13029;BME280;6581;42.662;23.402;2023-07-29T08:40:42;95233.59;;;30.76;28.93
13029;BME280;6581;42.662;23.402;2023-07-29T08:43:10;95225.19;;;30.37;29.61
13029;BME280;6581;42.662;23.402;2023-07-29T08:45:39;95227.50;;;29.82;30.55
13029;BME280;6581;42.662;23.402;2023-07-29T08:48:08;95213.00;;;28.98;32.29
13029;BME280;6581;42.662;23.402;2023-07-29T08:50:38;95221.50;;;29.06;32.45
13029;BME280;6581;42.662;23.402;2023-07-29T08:53:05;95206.06;;;28.97;32.78
13029;BME280;6581;42.662;23.402;2023-07-29T08:55:32;95210.09;;;28.82;32.46
13029;BME280;6581;42.662;23.402;2023-07-29T08:58:00;95201.50;;;28.69;33.33
13029;BME280;6581;42.662;23.402;2023-07-29T09:00:27;95200.53;;;28.51;33.91
13029;BME280;6581;42.662;23.402;2023-07-29T09:02:54;95200.88;;;28.39;33.67
13029;BME280;6581;42.662;23.402;2023-07-29T09:05:23;95192.34;;;28.51;33.32
13029;BME280;6581;42.662;23.402;2023-07-29T09:07:53;95197.34;;;28.53;33.38
13029;BME280;6581;42.662;23.402;2023-07-29T09:10:21;95195.69;;;28.61;34.16
13029;BME280;6581;42.662;23.402;2023-07-29T09:12:49;95194.53;;;28.68;33.69
13029;BME280;6581;42.662;23.402;2023-07-29T09:15:27;95188.91;;;28.71;33.21
13029;BME280;6581;42.662;23.402;2023-07-29T09:17:55;95188.81;;;28.65;33.07
13029;BME280;6581;42.662;23.402;2023-07-29T09:20:24;95189.53;;;28.81;32.83
13029;BME280;6581;42.662;23.402;2023-07-29T09:22:53;95181.28;;;28.75;31.64
13029;BME280;6581;42.662;23.402;2023-07-29T09:25:24;95182.91;;;28.87;31.59
13029;BME280;6581;42.662;23.402;2023-07-29T09:27:52;95172.63;;;28.77;31.49
13029;BME280;6581;42.662;23.402;2023-07-29T09:30:19;95177.72;;;28.49;30.96
13029;BME280;6581;42.662;23.402;2023-07-29T09:32:54;95172.19;;;28.43;31.19
13029;BME280;6581;42.662;23.402;2023-07-29T09:35:21;95166.22;;;28.59;30.30
13029;BME280;6581;42.662;23.402;2023-07-29T09:49:36;95163.19;;;28.98;30.49
13029;BME280;6581;42.662;23.402;2023-07-29T09:52:04;95158.97;;;29.23;30.82
13029;BME280;6581;42.662;23.402;2023-07-29T09:54:31;95149.59;;;29.55;30.44
13029;BME280;6581;42.662;23.402;2023-07-29T09:56:58;95149.69;;;29.66;29.38
13029;BME280;6581;42.662;23.402;2023-07-29T09:59:25;95147.50;;;28.93;30.61
13029;BME280;6581;42.662;23.402;2023-07-29T10:01:53;95144.44;;;29.31;30.78
13029;BME280;6581;42.662;23.402;2023-07-29T10:04:21;95149.59;;;29.55;28.93
13029;BME280;6581;42.662;23.402;2023-07-29T10:06:50;95147.53;;;29.44;29.09
13029;BME280;6581;42.662;23.402;2023-07-29T10:09:19;95144.00;;;29.38;30.03
13029;BME280;6581;42.662;23.402;2023-07-29T10:11:47;95146.13;;;29.29;28.88
13029;BME280;6581;42.662;23.402;2023-07-29T10:14:15;95143.06;;;29.21;29.06
13029;BME280;6581;42.662;23.402;2023-07-29T10:16:43;95143.69;;;29.31;27.93
13029;BME280;6581;42.662;23.402;2023-07-29T10:19:12;95134.75;;;29.30;28.83
13029;BME280;6581;42.662;23.402;2023-07-29T10:21:44;95132.31;;;29.32;28.17
13029;BME280;6581;42.662;23.402;2023-07-29T10:24:15;95128.88;;;29.37;28.86
13029;BME280;6581;42.662;23.402;2023-07-29T10:26:46;95123.91;;;29.36;29.29
13029;BME280;6581;42.662;23.402;2023-07-29T10:29:19;95120.00;;;29.48;29.03
13029;BME280;6581;42.662;23.402;2023-07-29T10:31:47;95117.09;;;29.57;28.09
13029;BME280;6581;42.662;23.402;2023-07-29T10:34:14;95115.84;;;29.52;27.87
13029;BME280;6581;42.662;23.402;2023-07-29T10:36:41;95105.91;;;29.49;27.98
13029;BME280;6581;42.662;23.402;2023-07-29T10:39:09;95107.81;;;29.43;28.38
13029;BME280;6581;42.662;23.402;2023-07-29T10:41:57;95105.94;;;29.29;28.01
13029;BME280;6581;42.662;23.402;2023-07-29T10:44:46;95104.16;;;29.46;28.38
13029;BME280;6581;42.662;23.402;2023-07-29T10:47:15;95104.72;;;29.62;28.25
13029;BME280;6581;42.662;23.402;2023-07-29T10:49:43;95098.88;;;29.74;28.96
13029;BME280;6581;42.662;23.402;2023-07-29T10:52:13;95092.28;;;29.55;28.02
13029;BME280;6581;42.662;23.402;2023-07-29T10:54:44;95093.84;;;29.67;28.25
13029;BME280;6581;42.662;23.402;2023-07-29T10:57:30;95089.25;;;29.84;26.82
13029;BME280;6581;42.662;23.402;2023-07-29T10:59:58;95089.81;;;29.94;28.19
13029;BME280;6581;42.662;23.402;2023-07-29T11:02:29;95085.63;;;29.99;27.18
13029;BME280;6581;42.662;23.402;2023-07-29T11:04:57;95080.97;;;30.10;27.41
13029;BME280;6581;42.662;23.402;2023-07-29T11:07:25;95078.78;;;30.20;27.64
13029;BME280;6581;42.662;23.402;2023-07-29T11:09:58;95079.03;;;30.22;26.99
13029;BME280;6581;42.662;23.402;2023-07-29T11:12:38;95077.53;;;30.15;26.91
13029;BME280;6581;42.662;23.402;2023-07-29T11:15:13;95060.63;;;30.17;26.93
13029;BME280;6581;42.662;23.402;2023-07-29T11:17:42;95065.19;;;30.36;26.40
13029;BME280;6581;42.662;23.402;2023-07-29T11:20:10;95069.16;;;30.41;25.72
13029;BME280;6581;42.662;23.402;2023-07-29T11:22:37;95067.75;;;30.57;26.83
13029;BME280;6581;42.662;23.402;2023-07-29T11:25:07;95078.03;;;30.25;27.28
13029;BME280;6581;42.662;23.402;2023-07-29T11:27:36;95074.00;;;30.09;27.40
13029;BME280;6581;42.662;23.402;2023-07-29T11:30:05;95072.75;;;30.05;27.38
13029;BME280;6581;42.662;23.402;2023-07-29T11:32:34;95066.88;;;30.23;26.57
13029;BME280;6581;42.662;23.402;2023-07-29T11:35:03;95059.66;;;30.20;26.92
13029;BME280;6581;42.662;23.402;2023-07-29T11:37:30;95062.91;;;30.29;26.41
13029;BME280;6581;42.662;23.402;2023-07-29T11:39:57;95062.75;;;30.50;26.80
13029;BME280;6581;42.662;23.402;2023-07-29T11:42:26;95052.34;;;30.54;26.06
13029;BME280;6581;42.662;23.402;2023-07-29T11:44:56;95058.31;;;30.58;25.40
13029;BME280;6581;42.662;23.402;2023-07-29T11:47:23;95052.34;;;30.59;25.51
13029;BME280;6581;42.662;23.402;2023-07-29T11:49:50;95044.66;;;30.63;25.80
13029;BME280;6581;42.662;23.402;2023-07-29T11:52:18;95045.69;;;30.83;25.86
13029;BME280;6581;42.662;23.402;2023-07-29T11:54:48;95043.19;;;30.90;26.34
13029;BME280;6581;42.662;23.402;2023-07-29T11:57:16;95049.69;;;31.04;25.20
13029;BME280;6581;42.662;23.402;2023-07-29T11:59:43;95035.03;;;31.12;25.95
13029;BME280;6581;42.662;23.402;2023-07-29T12:02:13;95035.78;;;31.24;25.77
13029;BME280;6581;42.662;23.402;2023-07-29T12:04:43;95039.25;;;31.47;25.13
13029;BME280;6581;42.662;23.402;2023-07-29T12:07:10;95033.75;;;31.58;25.89
13029;BME280;6581;42.662;23.402;2023-07-29T12:09:39;95027.75;;;31.76;25.24
13029;BME280;6581;42.662;23.402;2023-07-29T12:12:07;95029.72;;;31.81;25.58
13029;BME280;6581;42.662;23.402;2023-07-29T12:14:34;95025.53;;;31.63;25.08
13029;BME280;6581;42.662;23.402;2023-07-29T12:17:02;95017.31;;;31.69;24.63
13029;BME280;6581;42.662;23.402;2023-07-29T12:19:35;95022.53;;;31.67;25.18
13029;BME280;6581;42.662;23.402;2023-07-29T12:22:03;95025.78;;;31.54;24.58
13029;BME280;6581;42.662;23.402;2023-07-29T12:24:31;95017.88;;;31.34;24.82
13029;BME280;6581;42.662;23.402;2023-07-29T12:26:58;95016.63;;;31.24;24.42
13029;BME280;6581;42.662;23.402;2023-07-29T12:29:26;95009.16;;;31.30;25.15
13029;BME280;6581;42.662;23.402;2023-07-29T12:31:57;95003.69;;;31.30;24.85
13029;BME280;6581;42.662;23.402;2023-07-29T12:34:25;95008.13;;;31.55;24.69
13029;BME280;6581;42.662;23.402;2023-07-29T12:36:55;95001.38;;;31.67;24.40
13029;BME280;6581;42.662;23.402;2023-07-29T12:39:24;95005.81;;;31.82;24.05
13029;BME280;6581;42.662;23.402;2023-07-29T12:41:53;94998.84;;;31.81;24.11
13029;BME280;6581;42.662;23.402;2023-07-29T12:44:20;95004.59;;;31.72;23.97
13029;BME280;6581;42.662;23.402;2023-07-29T12:46:49;95008.88;;;31.50;23.82
13029;BME280;6581;42.662;23.402;2023-07-29T12:49:17;95005.88;;;31.65;24.32
13029;BME280;6581;42.662;23.402;2023-07-29T12:51:44;95000.91;;;31.58;23.71
13029;BME280;6581;42.662;23.402;2023-07-29T12:54:12;95007.63;;;31.46;23.93
13029;BME280;6581;42.662;23.402;2023-07-29T12:56:39;95001.38;;;31.67;24.00
13029;BME280;6581;42.662;23.402;2023-07-29T12:59:06;94994.16;;;31.70;22.78
13029;BME280;6581;42.662;23.402;2023-07-29T13:01:34;94997.59;;;31.87;23.43
13029;BME280;6581;42.662;23.402;2023-07-29T13:04:01;95001.00;;;32.04;23.30
13029;BME280;6581;42.662;23.402;2023-07-29T13:06:28;94999.91;;;32.35;23.33
13029;BME280;6581;42.662;23.402;2023-07-29T13:08:55;94997.69;;;32.23;22.92
13029;BME280;6581;42.662;23.402;2023-07-29T13:11:23;95002.97;;;32.15;22.97
13029;BME280;6581;42.662;23.402;2023-07-29T13:13:51;94998.22;;;32.21;23.31
13029;BME280;6581;42.662;23.402;2023-07-29T13:16:18;95001.66;;;32.27;23.76
13029;BME280;6581;42.662;23.402;2023-07-29T13:18:46;95007.72;;;32.15;23.62